Time;durP1;ratioP1;P1;durP2;ratioP2;P2;SDS_P1;SDS_P2;PMS_P1;PMS_P2;Temp;Humidity;BMP_temperature;BMP_pressure;BME280_temperature;BME280_humidity;BME280_pressure;Samples;Min_cycle;Max_cycle;Signal;HPM_P1;HPM_P2
2023/02/22 00:02:10;;;;;;;37.60;17.70;;;;;;;;;;4953055;28;20189;-79
2023/02/22 00:04:37;;;;;;;40.80;19.37;;;;;;;;;;4954258;28;20200;-79
2023/02/22 00:07:03;;;;;;;37.90;18.93;;;;;;;;;;4968748;28;20200;-78
2023/02/22 00:09:29;;;;;;;40.10;18.43;;;;;;;;;;4941377;28;20220;-79
2023/02/22 00:11:54;;;;;;;40.87;18.53;;;;;;;;;;4949411;28;20316;-79
2023/02/22 00:14:19;;;;;;;41.43;19.20;;;;;;;;;;4956309;28;20177;-78
2023/02/22 00:16:44;;;;;;;36.27;19.63;;;;;;;;;;4953964;28;20176;-80
2023/02/22 00:19:10;;;;;;;34.63;17.97;;;;;;;;;;4967753;28;20736;-80
2023/02/22 00:21:36;;;;;;;35.03;17.77;;;;;;;;;;4952826;28;20670;-80
2023/02/22 00:24:15;;;;;;;39.13;18.80;;;;;;;;;;4957714;28;20189;-79
2023/02/22 00:26:41;;;;;;;41.23;19.57;;;;;;;;;;4954522;28;20180;-80
2023/02/22 00:29:07;;;;;;;40.30;18.60;;;;;;;;;;4959659;28;20212;-80
2023/02/22 00:31:35;;;;;;;39.60;18.47;;;;;;;;;;4952732;28;20204;-79
2023/02/22 00:34:01;;;;;;;36.93;17.70;;;;;;;;;;4954349;29;20184;-79
2023/02/22 00:36:26;;;;;;;38.63;18.80;;;;;;;;;;4955597;28;20197;-80
2023/02/22 00:38:51;;;;;;;37.57;16.77;;;;;;;;;;4953471;29;20221;-79
2023/02/22 00:41:16;;;;;;;36.80;17.10;;;;;;;;;;4945032;28;20204;-80
2023/02/22 00:43:41;;;;;;;38.63;17.40;;;;;;;;;;4955384;28;20639;-80
2023/02/22 00:46:08;;;;;;;35.90;17.43;;;;;;;;;;4952928;28;20236;-77
2023/02/22 00:48:33;;;;;;;38.57;17.87;;;;;;;;;;4954284;29;20185;-78
2023/02/22 00:50:58;;;;;;;42.00;20.17;;;;;;;;;;4955575;28;20196;-78
2023/02/22 00:53:24;;;;;;;40.80;18.93;;;;;;;;;;4952802;28;20173;-79
2023/02/22 00:55:49;;;;;;;36.10;17.27;;;;;;;;;;4958477;28;21001;-79
2023/02/22 00:58:15;;;;;;;40.53;19.37;;;;;;;;;;4953683;28;20264;-79
2023/02/22 01:00:41;;;;;;;38.13;19.43;;;;;;;;;;4959848;28;20207;-80
2023/02/22 01:03:07;;;;;;;37.20;17.53;;;;;;;;;;4950651;28;20185;-79
2023/02/22 01:05:33;;;;;;;38.57;19.87;;;;;;;;;;4957352;28;20188;-79
2023/02/22 01:07:59;;;;;;;45.90;20.43;;;;;;;;;;4960366;28;20295;-79
2023/02/22 01:10:25;;;;;;;35.80;17.37;;;;;;;;;;4967995;28;20249;-79
2023/02/22 01:12:51;;;;;;;38.67;18.07;;;;;;;;;;4958703;28;20180;-79
2023/02/22 01:15:23;;;;;;;39.60;18.67;;;;;;;;;;4961727;28;20189;-80
2023/02/22 01:17:49;;;;;;;36.27;17.13;;;;;;;;;;4951985;28;20173;-79
2023/02/22 01:20:14;;;;;;;40.20;18.43;;;;;;;;;;4971821;28;20208;-78
2023/02/22 01:22:44;;;;;;;40.93;18.27;;;;;;;;;;4951237;28;20179;-78
2023/02/22 01:25:10;;;;;;;38.73;17.87;;;;;;;;;;4955209;28;20217;-78
2023/02/22 01:27:35;;;;;;;41.47;18.33;;;;;;;;;;4960070;28;20204;-78
2023/02/22 01:30:04;;;;;;;42.37;18.93;;;;;;;;;;4959647;28;20216;-78
2023/02/22 01:32:32;;;;;;;37.37;17.53;;;;;;;;;;4957186;28;20173;-79
2023/02/22 01:34:57;;;;;;;38.47;18.30;;;;;;;;;;4952696;29;20189;-79
2023/02/22 01:37:22;;;;;;;42.33;19.60;;;;;;;;;;4947616;28;20181;-77
2023/02/22 01:39:48;;;;;;;40.43;20.20;;;;;;;;;;4958969;28;20200;-78
2023/02/22 01:42:13;;;;;;;37.03;18.57;;;;;;;;;;4957742;28;20181;-81
2023/02/22 01:44:40;;;;;;;36.33;16.93;;;;;;;;;;4964429;28;20196;-79
2023/02/22 01:47:07;;;;;;;35.80;18.43;;;;;;;;;;4962123;28;20224;-80
2023/02/22 01:49:44;;;;;;;37.60;17.87;;;;;;;;;;4963558;28;20212;-79
2023/02/22 01:52:13;;;;;;;37.07;18.17;;;;;;;;;;4955902;28;20188;-77
2023/02/22 01:54:45;;;;;;;37.13;17.77;;;;;;;;;;4954351;29;20185;-80
2023/02/22 01:57:10;;;;;;;37.93;18.87;;;;;;;;;;4958784;28;20191;-80
2023/02/22 01:59:36;;;;;;;40.53;20.20;;;;;;;;;;4957578;28;20189;-79
2023/02/22 02:02:03;;;;;;;41.97;19.63;;;;;;;;;;4954816;28;20192;-79
2023/02/22 02:04:29;;;;;;;40.70;19.20;;;;;;;;;;4956339;28;20252;-80
2023/02/22 02:06:56;;;;;;;45.83;20.57;;;;;;;;;;4957693;28;20189;-79
2023/02/22 02:09:29;;;;;;;42.23;20.07;;;;;;;;;;4960458;28;20211;-77
2023/02/22 02:11:54;;;;;;;38.73;18.57;;;;;;;;;;4949989;28;20609;-77
2023/02/22 02:14:19;;;;;;;39.30;20.00;;;;;;;;;;4964855;28;20176;-77
2023/02/22 02:16:46;;;;;;;34.67;18.13;;;;;;;;;;4959099;28;20192;-77
2023/02/22 02:19:17;;;;;;;36.80;17.90;;;;;;;;;;4963630;28;20217;-77
2023/02/22 02:21:42;;;;;;;35.20;17.13;;;;;;;;;;4955731;29;20268;-77
2023/02/22 02:24:17;;;;;;;36.17;18.67;;;;;;;;;;4957256;28;20205;-78
2023/02/22 02:26:54;;;;;;;36.63;18.27;;;;;;;;;;4955386;28;20184;-77
2023/02/22 02:29:19;;;;;;;42.00;18.93;;;;;;;;;;4955114;28;20228;-77
2023/02/22 02:31:48;;;;;;;45.67;21.53;;;;;;;;;;4954261;28;20247;-81
2023/02/22 02:34:23;;;;;;;43.40;21.23;;;;;;;;;;4956351;28;20619;-78
2023/02/22 02:37:03;;;;;;;44.83;20.63;;;;;;;;;;4965586;28;20564;-80
2023/02/22 02:39:32;;;;;;;50.40;22.33;;;;;;;;;;4956380;28;20192;-77
2023/02/22 02:41:59;;;;;;;47.20;22.47;;;;;;;;;;4955138;28;20200;-78
2023/02/22 02:44:32;;;;;;;48.77;22.03;;;;;;;;;;4970097;28;20206;-77
2023/02/22 02:47:02;;;;;;;51.70;25.37;;;;;;;;;;4951939;28;20737;-78
2023/02/22 02:49:34;;;;;;;51.27;22.50;;;;;;;;;;4955046;28;20646;-77
2023/02/22 02:52:01;;;;;;;45.80;20.73;;;;;;;;;;4952877;28;20205;-79
2023/02/22 02:54:27;;;;;;;45.13;20.03;;;;;;;;;;4952009;28;20220;-79
2023/02/22 02:56:52;;;;;;;40.93;19.93;;;;;;;;;;4952804;28;20217;-77
2023/02/22 02:59:31;;;;;;;52.27;20.40;;;;;;;;;;4955108;28;20296;-77
2023/02/22 03:02:14;;;;;;;49.27;22.90;;;;;;;;;;4954240;29;20572;-77
2023/02/22 03:04:58;;;;;;;48.10;21.63;;;;;;;;;;4952077;28;20220;-81
2023/02/22 03:07:30;;;;;;;43.77;21.43;;;;;;;;;;4957976;28;20491;-78
2023/02/22 03:10:16;;;;;;;51.87;22.43;;;;;;;;;;4962799;28;20204;-78
2023/02/22 03:13:07;;;;;;;45.50;21.87;;;;;;;;;;4976852;28;20235;-78
2023/02/22 03:15:38;;;;;;;55.23;23.73;;;;;;;;;;4950502;29;20185;-78
2023/02/22 03:18:16;;;;;;;59.30;26.87;;;;;;;;;;4950488;28;20188;-78
2023/02/22 03:20:51;;;;;;;60.77;25.67;;;;;;;;;;4951184;29;20580;-78
2023/02/22 03:23:16;;;;;;;58.67;25.33;;;;;;;;;;4954292;28;20655;-78
2023/02/22 03:25:49;;;;;;;56.80;25.17;;;;;;;;;;4952080;28;20177;-78
2023/02/22 03:28:16;;;;;;;57.53;23.93;;;;;;;;;;4967634;28;20252;-78
2023/02/22 03:30:51;;;;;;;47.20;22.30;;;;;;;;;;4953491;28;20578;-79
2023/02/22 03:33:19;;;;;;;52.80;23.27;;;;;;;;;;4954072;29;20177;-77
2023/02/22 03:35:55;;;;;;;47.23;22.40;;;;;;;;;;4968347;28;20177;-78
2023/02/22 03:38:23;;;;;;;52.97;23.43;;;;;;;;;;4956570;28;20646;-78
2023/02/22 03:40:50;;;;;;;53.70;24.33;;;;;;;;;;4954308;28;20212;-80
2023/02/22 03:43:21;;;;;;;64.57;25.77;;;;;;;;;;4958330;28;20177;-79
2023/02/22 03:45:47;;;;;;;70.30;26.87;;;;;;;;;;4953781;28;20545;-80
2023/02/22 03:48:24;;;;;;;67.87;28.90;;;;;;;;;;4953124;28;20666;-80
2023/02/22 03:50:50;;;;;;;62.77;27.13;;;;;;;;;;4952330;28;20196;-79
2023/02/22 03:53:17;;;;;;;67.27;28.83;;;;;;;;;;4958853;28;20207;-79
2023/02/22 03:55:42;;;;;;;65.63;25.37;;;;;;;;;;4955804;29;20176;-79
2023/02/22 03:58:12;;;;;;;64.97;27.77;;;;;;;;;;4952659;28;20181;-79
2023/02/22 04:00:38;;;;;;;69.93;28.47;;;;;;;;;;4957639;28;20730;-79
2023/02/22 04:03:03;;;;;;;60.37;26.83;;;;;;;;;;4949577;28;20243;-79
2023/02/22 04:05:28;;;;;;;58.33;24.30;;;;;;;;;;4947114;28;20562;-79
2023/02/22 04:07:54;;;;;;;57.20;23.70;;;;;;;;;;4954844;28;20309;-79
2023/02/22 04:10:21;;;;;;;55.57;22.97;;;;;;;;;;4958728;28;20209;-80
2023/02/22 04:12:46;;;;;;;55.73;24.27;;;;;;;;;;4955725;28;20260;-80
2023/02/22 04:15:14;;;;;;;52.83;23.13;;;;;;;;;;4954928;29;20204;-79
2023/02/22 04:17:39;;;;;;;60.10;23.17;;;;;;;;;;4955834;28;20177;-79
2023/02/22 04:20:06;;;;;;;51.13;22.87;;;;;;;;;;4979564;28;20214;-81
2023/02/22 04:22:31;;;;;;;51.23;21.93;;;;;;;;;;4965176;28;20737;-81
2023/02/22 04:24:56;;;;;;;53.83;22.77;;;;;;;;;;4961847;28;20229;-81
2023/02/22 04:27:21;;;;;;;50.60;22.33;;;;;;;;;;4961624;28;20173;-81
2023/02/22 04:29:46;;;;;;;56.23;22.20;;;;;;;;;;4970319;28;20262;-81
2023/02/22 04:32:12;;;;;;;47.37;22.23;;;;;;;;;;4967221;28;20181;-81
2023/02/22 04:34:37;;;;;;;55.73;23.23;;;;;;;;;;4963170;28;20188;-81
2023/02/22 04:37:02;;;;;;;51.60;22.23;;;;;;;;;;4971449;28;20180;-80
2023/02/22 04:39:27;;;;;;;59.63;24.47;;;;;;;;;;4962254;28;20200;-81
2023/02/22 04:41:53;;;;;;;55.47;24.00;;;;;;;;;;4972102;28;20189;-79
2023/02/22 04:44:18;;;;;;;54.53;24.10;;;;;;;;;;4961113;28;20173;-79
2023/02/22 04:46:45;;;;;;;55.57;23.33;;;;;;;;;;4979365;28;20173;-79
2023/02/22 04:49:10;;;;;;;62.97;22.77;;;;;;;;;;4966314;28;20197;-83
2023/02/22 04:51:35;;;;;;;48.83;22.47;;;;;;;;;;4969630;28;20768;-81
2023/02/22 04:54:01;;;;;;;58.93;23.37;;;;;;;;;;4965406;28;20243;-82
2023/02/22 04:56:26;;;;;;;49.27;21.67;;;;;;;;;;4966347;28;20177;-82
2023/02/22 04:58:51;;;;;;;64.10;21.53;;;;;;;;;;4978840;28;20213;-81
2023/02/22 05:01:16;;;;;;;51.13;21.13;;;;;;;;;;4963880;28;20200;-81
2023/02/22 05:03:42;;;;;;;49.30;21.23;;;;;;;;;;4966138;28;20279;-81
2023/02/22 05:06:07;;;;;;;59.93;22.50;;;;;;;;;;4962246;28;20239;-81
2023/02/22 05:08:33;;;;;;;94.53;24.73;;;;;;;;;;4961998;28;20560;-81
2023/02/22 05:10:58;;;;;;;61.73;23.20;;;;;;;;;;4965297;28;20196;-81
2023/02/22 05:13:24;;;;;;;50.83;21.47;;;;;;;;;;4958689;28;20367;-81
2023/02/22 05:15:49;;;;;;;58.23;21.53;;;;;;;;;;4962168;28;20245;-81
2023/02/22 05:18:15;;;;;;;44.97;20.90;;;;;;;;;;4961055;28;20188;-80
2023/02/22 05:20:40;;;;;;;61.03;19.40;;;;;;;;;;4964302;28;20211;-81
2023/02/22 05:23:05;;;;;;;61.23;22.03;;;;;;;;;;4963565;28;20711;-81
2023/02/22 05:25:32;;;;;;;51.83;18.47;;;;;;;;;;4965396;28;20211;-79
2023/02/22 05:27:58;;;;;;;49.40;19.87;;;;;;;;;;4965528;28;20213;-81
2023/02/22 05:30:28;;;;;;;51.10;19.60;;;;;;;;;;4963682;28;20208;-81
2023/02/22 05:32:54;;;;;;;82.67;20.43;;;;;;;;;;4965827;28;20181;-80
2023/02/22 05:35:19;;;;;;;43.03;20.70;;;;;;;;;;4968434;28;20223;-81
2023/02/22 05:37:45;;;;;;;56.07;22.03;;;;;;;;;;4970617;28;20192;-80
2023/02/22 05:40:10;;;;;;;53.10;20.63;;;;;;;;;;4961538;28;20201;-82
2023/02/22 05:42:35;;;;;;;82.47;22.27;;;;;;;;;;4964737;28;20212;-81
2023/02/22 05:45:01;;;;;;;72.63;19.67;;;;;;;;;;4964468;28;20189;-82
2023/02/22 05:47:26;;;;;;;62.10;21.07;;;;;;;;;;4972118;28;20186;-81
2023/02/22 05:49:51;;;;;;;52.40;19.43;;;;;;;;;;4976821;28;20205;-81
2023/02/22 05:52:17;;;;;;;52.57;20.63;;;;;;;;;;4966540;28;20224;-79
2023/02/22 05:54:42;;;;;;;52.17;21.37;;;;;;;;;;4971901;29;20177;-80
2023/02/22 05:57:08;;;;;;;58.43;19.60;;;;;;;;;;4981810;28;20204;-81
2023/02/22 05:59:33;;;;;;;50.83;19.57;;;;;;;;;;4964935;28;20694;-81
2023/02/22 06:01:58;;;;;;;56.20;20.77;;;;;;;;;;4965085;28;20197;-79
2023/02/22 06:04:23;;;;;;;47.67;18.73;;;;;;;;;;4979326;28;20316;-79
2023/02/22 06:06:48;;;;;;;47.27;18.80;;;;;;;;;;4959146;28;20273;-79
2023/02/22 06:09:14;;;;;;;42.03;19.17;;;;;;;;;;4961007;28;20196;-81
2023/02/22 06:11:39;;;;;;;43.70;17.83;;;;;;;;;;4959772;28;20671;-82
2023/02/22 06:14:04;;;;;;;40.90;17.17;;;;;;;;;;4962530;28;20188;-81
2023/02/22 06:16:30;;;;;;;37.70;19.07;;;;;;;;;;4960022;28;20188;-81
2023/02/22 06:18:56;;;;;;;39.80;17.27;;;;;;;;;;4960403;28;20234;-80
2023/02/22 06:21:21;;;;;;;38.23;16.97;;;;;;;;;;4965500;28;20180;-80
2023/02/22 06:23:46;;;;;;;37.47;16.70;;;;;;;;;;4963219;28;20176;-81
2023/02/22 06:26:14;;;;;;;42.13;17.93;;;;;;;;;;4968563;28;20169;-81
2023/02/22 06:28:39;;;;;;;40.57;17.67;;;;;;;;;;4978528;28;20189;-81
2023/02/22 06:31:04;;;;;;;80.57;20.60;;;;;;;;;;4969402;28;20212;-82
2023/02/22 06:33:29;;;;;;;47.80;18.27;;;;;;;;;;4973098;28;20181;-81
2023/02/22 06:35:55;;;;;;;46.90;18.93;;;;;;;;;;4968185;29;20612;-80
2023/02/22 06:38:23;;;;;;;55.53;18.67;;;;;;;;;;4966159;28;20204;-81
2023/02/22 06:40:49;;;;;;;47.93;18.70;;;;;;;;;;4962831;28;20243;-79
2023/02/22 06:43:14;;;;;;;47.40;19.33;;;;;;;;;;4966675;28;20646;-79
2023/02/22 06:45:39;;;;;;;49.97;19.70;;;;;;;;;;4967006;28;20167;-79
2023/02/22 06:48:05;;;;;;;54.10;20.47;;;;;;;;;;4967547;28;20189;-79
2023/02/22 06:50:30;;;;;;;52.60;20.03;;;;;;;;;;4974440;28;20204;-79
2023/02/22 06:52:56;;;;;;;52.17;19.87;;;;;;;;;;4965380;28;20177;-79
2023/02/22 06:55:22;;;;;;;51.10;20.40;;;;;;;;;;4969453;28;20208;-82
2023/02/22 06:57:48;;;;;;;48.47;20.77;;;;;;;;;;4970591;28;20200;-82
2023/02/22 07:00:14;;;;;;;58.00;22.77;;;;;;;;;;4983323;28;20213;-81
2023/02/22 07:02:40;;;;;;;45.63;20.20;;;;;;;;;;4969364;28;20272;-80
2023/02/22 07:05:05;;;;;;;51.03;21.50;;;;;;;;;;4965167;28;20204;-81
2023/02/22 07:07:30;;;;;;;53.47;20.83;;;;;;;;;;4970626;28;20182;-82
2023/02/22 07:09:55;;;;;;;51.40;19.43;;;;;;;;;;4973891;28;20223;-80
2023/02/22 07:12:21;;;;;;;45.77;20.17;;;;;;;;;;4976053;28;20204;-80
2023/02/22 07:14:46;;;;;;;46.53;20.83;;;;;;;;;;4989572;28;20184;-78
2023/02/22 07:17:11;;;;;;;53.73;20.57;;;;;;;;;;4974063;28;20200;-79
2023/02/22 07:19:36;;;;;;;51.10;19.33;;;;;;;;;;4975155;28;20332;-79
2023/02/22 07:22:01;;;;;;;57.07;19.10;;;;;;;;;;4986322;28;20184;-79
2023/02/22 07:24:27;;;;;;;48.17;18.77;;;;;;;;;;4976938;28;20181;-80
2023/02/22 07:26:52;;;;;;;44.67;19.33;;;;;;;;;;4978334;28;20786;-79
2023/02/22 07:29:18;;;;;;;43.87;18.77;;;;;;;;;;4975606;28;20719;-80
2023/02/22 07:31:43;;;;;;;45.00;19.33;;;;;;;;;;4974816;28;20216;-80
2023/02/22 07:34:08;;;;;;;47.37;19.87;;;;;;;;;;4978963;28;20157;-80
2023/02/22 07:36:33;;;;;;;50.57;19.20;;;;;;;;;;4976351;28;20248;-80
2023/02/22 07:38:59;;;;;;;46.37;19.70;;;;;;;;;;4993240;28;20228;-80
2023/02/22 07:41:24;;;;;;;42.50;18.53;;;;;;;;;;4967074;28;20204;-80
2023/02/22 07:43:49;;;;;;;42.13;18.40;;;;;;;;;;4969903;28;20269;-80
2023/02/22 07:46:14;;;;;;;45.50;17.10;;;;;;;;;;4970760;28;20248;-80
2023/02/22 07:48:40;;;;;;;36.60;17.60;;;;;;;;;;4966211;28;20270;-81
2023/02/22 07:51:06;;;;;;;38.33;17.57;;;;;;;;;;4967866;28;20269;-81
2023/02/22 07:53:32;;;;;;;43.90;17.33;;;;;;;;;;4968701;29;20188;-81
2023/02/22 07:55:58;;;;;;;42.73;18.17;;;;;;;;;;4969236;28;20179;-81
2023/02/22 07:58:24;;;;;;;40.70;18.47;;;;;;;;;;4967281;28;20197;-82
2023/02/22 08:00:49;;;;;;;35.73;17.53;;;;;;;;;;4966108;28;20275;-82
2023/02/22 08:03:15;;;;;;;40.60;17.77;;;;;;;;;;4970713;28;20192;-81
2023/02/22 08:05:43;;;;;;;38.47;17.23;;;;;;;;;;4972750;28;20195;-80
2023/02/22 08:08:08;;;;;;;41.87;18.50;;;;;;;;;;4972445;28;20662;-80
2023/02/22 08:10:34;;;;;;;38.13;17.93;;;;;;;;;;4969790;28;20208;-80
2023/02/22 08:13:00;;;;;;;37.97;18.67;;;;;;;;;;4966899;28;20188;-80
2023/02/22 08:15:27;;;;;;;34.47;15.73;;;;;;;;;;4976546;28;20176;-80
2023/02/22 08:17:52;;;;;;;36.43;17.27;;;;;;;;;;4959715;28;20201;-80
2023/02/22 08:20:18;;;;;;;34.47;17.73;;;;;;;;;;4965999;28;20216;-80
2023/02/22 08:22:43;;;;;;;32.90;15.63;;;;;;;;;;4970408;28;20185;-80
2023/02/22 08:25:09;;;;;;;29.40;14.90;;;;;;;;;;4960193;28;20177;-80
2023/02/22 08:27:34;;;;;;;30.67;16.33;;;;;;;;;;4965146;28;20181;-80
2023/02/22 08:29:59;;;;;;;31.93;16.30;;;;;;;;;;4967304;29;20235;-80
2023/02/22 08:32:24;;;;;;;34.97;15.60;;;;;;;;;;4959621;28;20215;-80
2023/02/22 08:34:50;;;;;;;35.93;16.70;;;;;;;;;;4967290;28;20627;-80
2023/02/22 08:37:16;;;;;;;30.87;15.37;;;;;;;;;;4964658;28;20274;-80
2023/02/22 08:39:41;;;;;;;31.97;15.10;;;;;;;;;;4965761;28;20316;-80
2023/02/22 08:42:08;;;;;;;32.23;17.00;;;;;;;;;;4962695;28;20254;-80
2023/02/22 08:44:33;;;;;;;29.10;15.37;;;;;;;;;;4961365;28;20260;-80
2023/02/22 08:46:59;;;;;;;29.83;15.37;;;;;;;;;;4963463;28;20829;-80
2023/02/22 08:49:24;;;;;;;29.60;15.20;;;;;;;;;;4957700;28;20581;-80
2023/02/22 08:51:49;;;;;;;28.60;16.07;;;;;;;;;;4955933;28;20259;-81
2023/02/22 08:54:14;;;;;;;27.60;15.13;;;;;;;;;;4957337;28;20208;-80
2023/02/22 08:56:41;;;;;;;33.43;15.80;;;;;;;;;;4952583;28;20189;-80
2023/02/22 08:59:07;;;;;;;28.10;15.90;;;;;;;;;;4964893;28;20267;-79
2023/02/22 09:01:33;;;;;;;31.53;16.10;;;;;;;;;;4967235;28;20197;-80
2023/02/22 09:03:58;;;;;;;29.90;16.50;;;;;;;;;;4967006;28;20186;-80
2023/02/22 09:06:24;;;;;;;26.60;14.70;;;;;;;;;;4963103;28;20208;-80
2023/02/22 09:08:49;;;;;;;26.27;14.50;;;;;;;;;;4961929;28;20197;-79
2023/02/22 09:11:14;;;;;;;28.37;16.43;;;;;;;;;;4960175;28;20205;-80
2023/02/22 09:13:40;;;;;;;30.73;16.40;;;;;;;;;;4972851;28;20177;-79
2023/02/22 09:16:05;;;;;;;28.47;16.20;;;;;;;;;;4963554;28;20193;-80
2023/02/22 09:18:31;;;;;;;29.03;15.57;;;;;;;;;;4965886;28;20184;-80
2023/02/22 09:20:56;;;;;;;26.00;15.97;;;;;;;;;;4961040;28;20196;-81
2023/02/22 09:23:21;;;;;;;27.13;16.07;;;;;;;;;;4963463;28;20184;-81
2023/02/22 09:25:47;;;;;;;31.57;16.53;;;;;;;;;;4965568;28;20191;-81
2023/02/22 09:28:12;;;;;;;27.70;15.80;;;;;;;;;;4974779;28;20184;-79
2023/02/22 09:30:37;;;;;;;28.00;16.03;;;;;;;;;;4983284;28;20231;-82
2023/02/22 09:33:04;;;;;;;27.93;16.77;;;;;;;;;;4962133;28;20173;-78
2023/02/22 09:35:30;;;;;;;29.07;15.20;;;;;;;;;;4962470;28;20212;-80
2023/02/22 09:37:56;;;;;;;26.70;15.20;;;;;;;;;;4963422;28;20196;-81
2023/02/22 09:40:28;;;;;;;25.87;15.43;;;;;;;;;;4961837;28;20269;-81
2023/02/22 09:43:02;;;;;;;25.57;14.83;;;;;;;;;;4964921;28;20189;-81
2023/02/22 09:45:31;;;;;;;26.50;15.90;;;;;;;;;;4965024;28;20181;-81
2023/02/22 09:47:58;;;;;;;25.73;13.97;;;;;;;;;;4957100;28;20272;-81
2023/02/22 09:50:25;;;;;;;28.23;15.30;;;;;;;;;;4962992;28;20839;-82
2023/02/22 09:52:59;;;;;;;28.03;15.50;;;;;;;;;;4966724;28;20177;-81
2023/02/22 09:55:27;;;;;;;26.33;15.47;;;;;;;;;;4964196;28;20260;-81
2023/02/22 09:57:54;;;;;;;30.10;14.63;;;;;;;;;;4962748;28;20216;-82
2023/02/22 10:00:21;;;;;;;27.67;15.53;;;;;;;;;;4961998;28;20205;-81
2023/02/22 10:02:55;;;;;;;27.40;15.47;;;;;;;;;;4979015;28;20185;-82
2023/02/22 10:05:26;;;;;;;24.10;14.93;;;;;;;;;;4960338;28;20165;-81
2023/02/22 10:08:04;;;;;;;26.67;15.40;;;;;;;;;;4961633;28;20207;-81
2023/02/22 10:10:32;;;;;;;24.27;14.43;;;;;;;;;;4959852;28;20432;-81
2023/02/22 10:13:16;;;;;;;26.70;16.57;;;;;;;;;;4959197;28;20192;-81
2023/02/22 10:15:54;;;;;;;24.80;14.37;;;;;;;;;;4957961;28;20232;-81
2023/02/22 10:18:29;;;;;;;27.40;15.80;;;;;;;;;;4957311;28;20177;-81
2023/02/22 10:21:09;;;;;;;23.27;14.87;;;;;;;;;;4979544;23;20255;-73
2023/02/22 10:23:40;;;;;;;23.57;15.33;;;;;;;;;;4972446;28;20306;-72
2023/02/22 10:26:11;;;;;;;26.60;15.57;;;;;;;;;;4973289;28;20177;-73
2023/02/22 10:28:50;;;;;;;27.20;15.20;;;;;;;;;;4969302;28;20206;-72
2023/02/22 10:31:20;;;;;;;27.50;15.53;;;;;;;;;;4952353;29;20235;-72
2023/02/22 10:33:46;;;;;;;25.17;14.53;;;;;;;;;;4957857;28;20181;-72
2023/02/22 10:36:17;;;;;;;26.30;15.57;;;;;;;;;;4951835;28;20181;-73
2023/02/22 10:38:45;;;;;;;27.53;16.80;;;;;;;;;;4951988;28;20224;-72
2023/02/22 10:41:10;;;;;;;29.67;15.20;;;;;;;;;;4952405;28;20192;-72
2023/02/22 10:43:39;;;;;;;28.03;15.13;;;;;;;;;;4949825;28;20189;-71
2023/02/22 10:46:06;;;;;;;25.20;14.97;;;;;;;;;;4955527;28;20181;-72
2023/02/22 10:48:34;;;;;;;27.67;16.67;;;;;;;;;;4953234;28;20211;-72
2023/02/22 10:51:00;;;;;;;30.27;17.60;;;;;;;;;;4951187;28;20623;-72
2023/02/22 10:53:26;;;;;;;28.53;15.70;;;;;;;;;;4955111;28;20213;-72
2023/02/22 10:56:04;;;;;;;31.37;17.37;;;;;;;;;;4950659;28;20224;-73
2023/02/22 10:58:38;;;;;;;29.47;16.30;;;;;;;;;;4965288;28;20177;-73
2023/02/22 11:01:16;;;;;;;27.17;15.33;;;;;;;;;;4951088;28;20260;-72
2023/02/22 11:03:41;;;;;;;27.77;16.20;;;;;;;;;;4951126;28;20208;-72
2023/02/22 11:06:20;;;;;;;26.73;14.80;;;;;;;;;;4952642;28;20670;-73
2023/02/22 11:08:49;;;;;;;28.13;16.43;;;;;;;;;;4951458;29;20188;-71
2023/02/22 11:11:23;;;;;;;26.13;15.93;;;;;;;;;;4953056;28;20208;-72
2023/02/22 11:13:53;;;;;;;27.67;15.93;;;;;;;;;;4949588;28;20258;-72
2023/02/22 11:16:24;;;;;;;26.33;15.97;;;;;;;;;;4945248;28;20193;-72
2023/02/22 11:18:49;;;;;;;30.43;16.23;;;;;;;;;;4936928;28;20188;-73
2023/02/22 11:21:21;;;;;;;27.70;15.97;;;;;;;;;;4957185;28;20674;-72
2023/02/22 11:23:47;;;;;;;23.07;13.77;;;;;;;;;;4951625;28;20264;-73
2023/02/22 11:26:14;;;;;;;27.03;15.90;;;;;;;;;;4953633;28;20256;-72
2023/02/22 11:28:48;;;;;;;27.27;15.47;;;;;;;;;;4951769;28;20195;-72
2023/02/22 11:31:18;;;;;;;26.40;16.33;;;;;;;;;;4948553;28;20239;-72
2023/02/22 11:33:54;;;;;;;25.35;14.50;;;;;;;;;;4949937;28;20180;-72
2023/02/22 11:36:31;;;;;;;24.80;14.17;;;;;;;;;;4957165;28;20662;-72
2023/02/22 11:38:59;;;;;;;22.43;14.63;;;;;;;;;;4948157;28;20561;-73
2023/02/22 11:41:28;;;;;;;26.73;14.70;;;;;;;;;;4948445;28;20199;-72
2023/02/22 11:44:10;;;;;;;26.87;15.17;;;;;;;;;;4951072;28;20575;-72
2023/02/22 11:46:36;;;;;;;25.50;14.40;;;;;;;;;;4947470;28;20189;-72
2023/02/22 11:49:05;;;;;;;22.25;13.75;;;;;;;;;;4956458;28;20189;-72
2023/02/22 11:51:38;;;;;;;23.75;14.82;;;;;;;;;;4950040;28;20677;-74
2023/02/22 11:54:07;;;;;;;24.20;14.00;;;;;;;;;;4951578;29;20180;-73
2023/02/22 11:56:38;;;;;;;22.70;13.40;;;;;;;;;;4950923;29;20181;-72
2023/02/22 11:59:16;;;;;;;23.85;14.45;;;;;;;;;;4952872;28;20185;-72
2023/02/22 12:01:59;;;;;;;23.45;15.20;;;;;;;;;;4950813;28;20195;-72
2023/02/22 12:04:37;;;;;;;20.55;13.32;;;;;;;;;;4947838;28;20192;-72
2023/02/22 12:07:14;;;;;;;22.70;13.48;;;;;;;;;;4950517;28;20207;-72
2023/02/22 12:09:46;;;;;;;22.52;14.50;;;;;;;;;;4952172;28;20230;-72
2023/02/22 12:12:26;;;;;;;23.67;14.15;;;;;;;;;;4950519;28;20276;-73
2023/02/22 12:15:01;;;;;;;17.73;12.45;;;;;;;;;;4954805;28;20598;-74
2023/02/22 12:17:29;;;;;;;23.83;14.77;;;;;;;;;;4954627;28;20193;-73
2023/02/22 12:19:59;;;;;;;20.33;12.93;;;;;;;;;;4952662;28;20212;-73
2023/02/22 12:22:32;;;;;;;20.10;12.80;;;;;;;;;;4951551;28;20185;-72
2023/02/22 12:25:18;;;;;;;21.83;14.55;;;;;;;;;;4947236;28;20200;-72
2023/02/22 12:27:43;;;;;;;21.17;14.13;;;;;;;;;;4951145;28;20180;-73
2023/02/22 12:30:22;;;;;;;22.42;14.48;;;;;;;;;;4951700;28;20201;-72
2023/02/22 12:32:49;;;;;;;20.52;12.50;;;;;;;;;;4949930;28;20182;-73
2023/02/22 12:35:18;;;;;;;17.90;12.68;;;;;;;;;;4951320;28;20710;-72
2023/02/22 12:38:03;;;;;;;18.77;12.68;;;;;;;;;;4945853;28;20184;-72
2023/02/22 12:40:34;;;;;;;19.17;13.20;;;;;;;;;;4951662;28;20208;-72
2023/02/22 12:43:29;;;;;;;20.67;14.50;;;;;;;;;;4950524;29;20243;-72
2023/02/22 12:45:57;;;;;;;19.15;12.07;;;;;;;;;;4957631;28;20352;-72
2023/02/22 12:48:30;;;;;;;17.00;12.07;;;;;;;;;;4952588;28;20215;-72
2023/02/22 12:50:58;;;;;;;20.90;13.48;;;;;;;;;;4951297;28;20244;-72
2023/02/22 12:53:43;;;;;;;19.67;13.68;;;;;;;;;;4955273;29;20177;-72
2023/02/22 12:56:22;;;;;;;20.50;13.05;;;;;;;;;;4952127;28;20204;-73
2023/02/22 12:59:06;;;;;;;21.83;13.60;;;;;;;;;;4953972;28;20666;-72
2023/02/22 13:01:35;;;;;;;17.52;11.55;;;;;;;;;;4958748;28;20184;-72
2023/02/22 13:04:03;;;;;;;16.45;12.48;;;;;;;;;;4954932;28;20188;-72
2023/02/22 13:06:37;;;;;;;18.27;12.45;;;;;;;;;;4956637;28;20208;-72
2023/02/22 13:09:05;;;;;;;19.17;13.60;;;;;;;;;;4947473;28;20192;-73
2023/02/22 13:11:35;;;;;;;20.00;13.13;;;;;;;;;;4949486;28;20233;-73
2023/02/22 13:14:19;;;;;;;16.85;12.38;;;;;;;;;;4952035;28;20181;-73
2023/02/22 13:16:51;;;;;;;18.48;13.10;;;;;;;;;;4954397;28;20204;-72
2023/02/22 13:19:22;;;;;;;19.50;13.40;;;;;;;;;;4968005;28;20200;-75
2023/02/22 13:21:53;;;;;;;18.02;13.07;;;;;;;;;;4952869;28;20639;-72
2023/02/22 13:24:29;;;;;;;16.98;11.82;;;;;;;;;;4955452;28;20185;-71
2023/02/22 13:26:54;;;;;;;21.45;13.60;;;;;;;;;;4948355;29;20181;-72
2023/02/22 13:29:23;;;;;;;17.48;12.85;;;;;;;;;;4952567;29;20219;-75
2023/02/22 13:32:03;;;;;;;18.17;12.52;;;;;;;;;;4951487;28;20193;-74
2023/02/22 13:34:29;;;;;;;20.92;13.85;;;;;;;;;;4953076;28;20209;-73
2023/02/22 13:36:54;;;;;;;20.38;13.63;;;;;;;;;;4949692;28;20216;-72
2023/02/22 13:39:38;;;;;;;20.42;13.95;;;;;;;;;;4952251;28;20208;-73
2023/02/22 13:42:22;;;;;;;20.38;14.32;;;;;;;;;;4952891;29;20267;-73
2023/02/22 13:44:56;;;;;;;18.50;13.18;;;;;;;;;;4957161;28;20672;-72
2023/02/22 13:47:32;;;;;;;17.80;12.23;;;;;;;;;;4951737;28;20293;-74
2023/02/22 13:50:06;;;;;;;19.30;13.15;;;;;;;;;;4953263;28;20785;-73
2023/02/22 13:52:33;;;;;;;21.70;12.50;;;;;;;;;;4952217;28;20188;-74
2023/02/22 13:55:00;;;;;;;19.42;12.50;;;;;;;;;;4952073;28;20181;-73
2023/02/22 13:57:27;;;;;;;17.73;13.02;;;;;;;;;;4955178;28;20256;-72
2023/02/22 14:00:11;;;;;;;19.98;12.57;;;;;;;;;;4967928;28;20196;-73
2023/02/22 14:02:55;;;;;;;22.33;13.82;;;;;;;;;;4952399;28;20271;-73
2023/02/22 14:05:39;;;;;;;18.08;12.75;;;;;;;;;;4948811;28;20268;-74
2023/02/22 14:08:05;;;;;;;20.42;13.85;;;;;;;;;;4965363;28;20669;-73
2023/02/22 14:10:35;;;;;;;21.92;16.38;;;;;;;;;;4954883;28;20212;-73
2023/02/22 14:13:05;;;;;;;21.60;16.08;;;;;;;;;;4968768;28;20185;-73
2023/02/22 14:15:30;;;;;;;22.00;15.10;;;;;;;;;;4950732;28;20185;-72
2023/02/22 14:17:55;;;;;;;20.98;14.63;;;;;;;;;;4952070;28;20276;-73
2023/02/22 14:20:28;;;;;;;19.27;12.98;;;;;;;;;;4954798;28;20216;-72
2023/02/22 14:22:54;;;;;;;21.40;15.57;;;;;;;;;;4951202;28;20181;-72
2023/02/22 14:25:33;;;;;;;21.48;15.10;;;;;;;;;;4954817;28;20188;-72